Briggsville, Wisconsin
Current Conditions -  °F | °C
As of 11:55 AM on Tuesday 21 Oct 2014 (Local Time) from KDLL Reporting Station
Overcast Overcast  
Wind Chill: 41°   Ceiling: 2300
Heat Index: 46°   Visibility: 10mi
Dew Point: 35°   Wind: 10mph
Humidity: 66%   Direction: 70°ENE
Pressure: 30.25"   Gusts: NA
Location:  43.65°N, 89.59°W
Report Text: KDLL 211655Z AUTO 07009KT 10SM OVC023 08/02 A3025 RMK AO2 T00780017
Loading
Personal Weather Stations






























Interactive Weather Map New forecast layout! Learn more

10-Day Weather Forecast

Advertisements
Track Severe Weather on mobile